sensor_id;sensor_type;location;lat;lon;timestamp;P1;P2;P0
78512;PMS5003;67809;55.034;73.462;2023-04-01T00:01:59;20.00;14.00;9.00
78512;PMS5003;67809;55.034;73.462;2023-04-01T00:04:25;13.25;10.75;8.00
78512;PMS5003;67809;55.034;73.462;2023-04-01T00:06:53;13.00;11.00;7.00
78512;PMS5003;67809;55.034;73.462;2023-04-01T00:09:19;12.00;10.00;7.67
78512;PMS5003;67809;55.034;73.462;2023-04-01T00:11:45;11.75;10.00;6.00
78512;PMS5003;67809;55.034;73.462;2023-04-01T00:14:11;14.00;11.00;7.00
78512;PMS5003;67809;55.034;73.462;2023-04-01T00:16:38;13.00;11.00;7.00
78512;PMS5003;67809;55.034;73.462;2023-04-01T00:19:04;17.25;13.00;8.25
78512;PMS5003;67809;55.034;73.462;2023-04-01T00:21:40;15.50;13.00;7.75
78512;PMS5003;67809;55.034;73.462;2023-04-01T00:24:06;19.50;15.00;9.00
78512;PMS5003;67809;55.034;73.462;2023-04-01T00:26:32;18.00;14.50;8.00
78512;PMS5003;67809;55.034;73.462;2023-04-01T00:29:08;16.75;13.00;8.75
78512;PMS5003;67809;55.034;73.462;2023-04-01T00:31:34;15.00;13.00;8.00
78512;PMS5003;67809;55.034;73.462;2023-04-01T00:34:05;19.00;15.00;8.00
78512;PMS5003;67809;55.034;73.462;2023-04-01T00:36:35;18.00;15.00;9.00
78512;PMS5003;67809;55.034;73.462;2023-04-01T00:39:01;15.00;13.33;8.33
78512;PMS5003;67809;55.034;73.462;2023-04-01T00:41:27;17.00;13.00;8.50
78512;PMS5003;67809;55.034;73.462;2023-04-01T00:44:11;14.00;11.75;8.00
78512;PMS5003;67809;55.034;73.462;2023-04-01T00:46:39;20.00;15.00;8.00
78512;PMS5003;67809;55.034;73.462;2023-04-01T00:49:05;16.50;14.00;10.00
78512;PMS5003;67809;55.034;73.462;2023-04-01T00:51:32;18.00;14.00;9.00
78512;PMS5003;67809;55.034;73.462;2023-04-01T00:53:58;22.50;16.75;10.00
78512;PMS5003;67809;55.034;73.462;2023-04-01T00:56:27;19.75;15.50;10.00
78512;PMS5003;67809;55.034;73.462;2023-04-01T00:59:00;18.75;15.00;9.00
78512;PMS5003;67809;55.034;73.462;2023-04-01T01:01:26;19.75;15.25;10.25
78512;PMS5003;67809;55.034;73.462;2023-04-01T01:03:53;19.00;16.50;10.50
78512;PMS5003;67809;55.034;73.462;2023-04-01T01:08:58;22.00;18.25;12.25
78512;PMS5003;67809;55.034;73.462;2023-04-01T01:11:50;33.50;26.00;16.00
78512;PMS5003;67809;55.034;73.462;2023-04-01T01:22:31;24.75;19.00;12.00
78512;PMS5003;67809;55.034;73.462;2023-04-01T01:27:31;22.00;18.50;11.25
78512;PMS5003;67809;55.034;73.462;2023-04-01T01:30:21;22.00;18.00;11.00
78512;PMS5003;67809;55.034;73.462;2023-04-01T01:35:35;17.25;14.25;8.75
78512;PMS5003;67809;55.034;73.462;2023-04-01T01:38:11;24.00;18.00;11.00
78512;PMS5003;67809;55.034;73.462;2023-04-01T01:40:46;19.00;15.00;9.00
78512;PMS5003;67809;55.034;73.462;2023-04-01T01:43:14;20.00;16.00;10.00
78512;PMS5003;67809;55.034;73.462;2023-04-01T01:45:44;24.25;18.00;11.00
78512;PMS5003;67809;55.034;73.462;2023-04-01T01:48:12;20.50;17.00;11.00
78512;PMS5003;67809;55.034;73.462;2023-04-01T01:50:38;20.00;16.33;9.33
78512;PMS5003;67809;55.034;73.462;2023-04-01T01:53:10;25.00;21.00;12.25
78512;PMS5003;67809;55.034;73.462;2023-04-01T01:55:37;21.00;17.25;12.00
78512;PMS5003;67809;55.034;73.462;2023-04-01T01:58:05;25.50;19.00;10.50
78512;PMS5003;67809;55.034;73.462;2023-04-01T02:00:34;24.00;19.67;12.33
78512;PMS5003;67809;55.034;73.462;2023-04-01T02:03:00;20.75;16.00;11.00
78512;PMS5003;67809;55.034;73.462;2023-04-01T02:05:36;22.25;17.75;10.75
78512;PMS5003;67809;55.034;73.462;2023-04-01T02:08:15;23.00;18.00;11.25
78512;PMS5003;67809;55.034;73.462;2023-04-01T02:11:13;23.75;19.00;11.00
78512;PMS5003;67809;55.034;73.462;2023-04-01T02:16:27;21.00;16.00;11.00
78512;PMS5003;67809;55.034;73.462;2023-04-01T02:19:01;16.00;13.25;8.75
78512;PMS5003;67809;55.034;73.462;2023-04-01T02:21:43;20.00;16.00;10.00
78512;PMS5003;67809;55.034;73.462;2023-04-01T02:24:11;17.50;15.00;9.00
78512;PMS5003;67809;55.034;73.462;2023-04-01T02:26:43;16.25;14.00;10.00
78512;PMS5003;67809;55.034;73.462;2023-04-01T02:29:11;15.00;12.00;7.00
78512;PMS5003;67809;55.034;73.462;2023-04-01T02:31:37;12.00;10.00;6.00
78512;PMS5003;67809;55.034;73.462;2023-04-01T02:34:04;10.25;8.00;6.00
78512;PMS5003;67809;55.034;73.462;2023-04-01T02:36:31;9.00;8.00;5.00
78512;PMS5003;67809;55.034;73.462;2023-04-01T02:38:57;12.00;8.00;5.00
78512;PMS5003;67809;55.034;73.462;2023-04-01T02:41:28;11.00;9.00;5.00
78512;PMS5003;67809;55.034;73.462;2023-04-01T02:43:54;16.25;11.00;7.00
78512;PMS5003;67809;55.034;73.462;2023-04-01T02:46:31;6.00;5.00;4.00
78512;PMS5003;67809;55.034;73.462;2023-04-01T02:48:57;9.00;7.00;4.00
78512;PMS5003;67809;55.034;73.462;2023-04-01T02:51:23;6.00;5.00;3.00
78512;PMS5003;67809;55.034;73.462;2023-04-01T02:53:49;7.50;5.00;3.00
78512;PMS5003;67809;55.034;73.462;2023-04-01T02:56:15;6.75;5.00;4.00
78512;PMS5003;67809;55.034;73.462;2023-04-01T02:58:41;9.00;8.00;4.75
78512;PMS5003;67809;55.034;73.462;2023-04-01T03:01:18;7.00;5.00;3.00
78512;PMS5003;67809;55.034;73.462;2023-04-01T03:03:48;8.00;6.00;4.00
78512;PMS5003;67809;55.034;73.462;2023-04-01T03:06:15;8.00;6.00;4.00
78512;PMS5003;67809;55.034;73.462;2023-04-01T03:08:43;6.25;5.00;3.00
78512;PMS5003;67809;55.034;73.462;2023-04-01T03:11:20;8.67;7.00;3.33
78512;PMS5003;67809;55.034;73.462;2023-04-01T03:13:46;11.00;10.00;6.00
78512;PMS5003;67809;55.034;73.462;2023-04-01T03:16:17;6.00;5.75;4.00
78512;PMS5003;67809;55.034;73.462;2023-04-01T03:18:43;11.00;6.00;3.00
78512;PMS5003;67809;55.034;73.462;2023-04-01T03:21:16;6.00;5.00;3.67
78512;PMS5003;67809;55.034;73.462;2023-04-01T03:23:47;9.75;7.00;4.00
78512;PMS5003;67809;55.034;73.462;2023-04-01T03:26:14;5.50;5.00;3.00
78512;PMS5003;67809;55.034;73.462;2023-04-01T03:28:41;8.25;7.00;4.50
78512;PMS5003;67809;55.034;73.462;2023-04-01T03:31:07;7.67;6.00;3.33
78512;PMS5003;67809;55.034;73.462;2023-04-01T03:33:40;9.00;6.00;4.00
78512;PMS5003;67809;55.034;73.462;2023-04-01T03:36:10;6.50;5.25;3.75
78512;PMS5003;67809;55.034;73.462;2023-04-01T03:38:39;8.00;6.00;4.00
78512;PMS5003;67809;55.034;73.462;2023-04-01T03:41:05;8.33;6.33;4.00
78512;PMS5003;67809;55.034;73.462;2023-04-01T03:43:32;6.00;5.00;3.00
78512;PMS5003;67809;55.034;73.462;2023-04-01T03:46:08;7.00;5.75;3.00
78512;PMS5003;67809;55.034;73.462;2023-04-01T03:48:35;7.00;6.00;4.00
78512;PMS5003;67809;55.034;73.462;2023-04-01T03:51:01;8.00;7.00;4.33
78512;PMS5003;67809;55.034;73.462;2023-04-01T03:53:27;10.25;8.25;5.00
78512;PMS5003;67809;55.034;73.462;2023-04-01T03:55:57;9.75;8.00;4.00
78512;PMS5003;67809;55.034;73.462;2023-04-01T03:58:23;10.25;8.00;4.00
78512;PMS5003;67809;55.034;73.462;2023-04-01T04:00:50;8.00;6.00;4.00
78512;PMS5003;67809;55.034;73.462;2023-04-01T04:03:17;8.00;7.00;4.00
78512;PMS5003;67809;55.034;73.462;2023-04-01T04:05:47;8.25;6.00;4.00
78512;PMS5003;67809;55.034;73.462;2023-04-01T04:08:15;8.00;6.00;4.00
78512;PMS5003;67809;55.034;73.462;2023-04-01T04:10:41;8.50;6.00;4.00
78512;PMS5003;67809;55.034;73.462;2023-04-01T04:13:07;12.00;9.00;6.00
78512;PMS5003;67809;55.034;73.462;2023-04-01T04:15:47;8.50;7.00;4.25
78512;PMS5003;67809;55.034;73.462;2023-04-01T04:18:13;9.00;7.00;5.00
78512;PMS5003;67809;55.034;73.462;2023-04-01T04:20:44;9.00;7.00;5.00
78512;PMS5003;67809;55.034;73.462;2023-04-01T04:23:11;6.75;6.00;4.00
78512;PMS5003;67809;55.034;73.462;2023-04-01T04:25:37;9.00;7.00;5.00
78512;PMS5003;67809;55.034;73.462;2023-04-01T04:28:04;12.00;8.75;4.50
78512;PMS5003;67809;55.034;73.462;2023-04-01T04:30:35;9.50;7.50;5.00
78512;PMS5003;67809;55.034;73.462;2023-04-01T04:33:01;9.00;7.00;4.00
78512;PMS5003;67809;55.034;73.462;2023-04-01T04:35:27;8.00;7.00;4.25
78512;PMS5003;67809;55.034;73.462;2023-04-01T04:37:53;10.00;8.00;5.00
78512;PMS5003;67809;55.034;73.462;2023-04-01T04:40:21;11.00;9.00;6.00
78512;PMS5003;67809;55.034;73.462;2023-04-01T04:42:47;9.00;7.33;5.00
78512;PMS5003;67809;55.034;73.462;2023-04-01T04:45:16;12.00;9.75;7.00
78512;PMS5003;67809;55.034;73.462;2023-04-01T04:47:51;12.00;9.75;6.00
78512;PMS5003;67809;55.034;73.462;2023-04-01T04:50:23;10.25;8.50;6.00
78512;PMS5003;67809;55.034;73.462;2023-04-01T04:52:56;12.00;9.00;6.00
78512;PMS5003;67809;55.034;73.462;2023-04-01T04:55:22;10.00;8.00;5.00
78512;PMS5003;67809;55.034;73.462;2023-04-01T04:58:00;13.00;11.00;7.00
78512;PMS5003;67809;55.034;73.462;2023-04-01T05:00:27;11.00;8.25;5.00
78512;PMS5003;67809;55.034;73.462;2023-04-01T05:02:59;10.00;9.00;5.25
78512;PMS5003;67809;55.034;73.462;2023-04-01T05:05:25;9.00;7.00;4.25
78512;PMS5003;67809;55.034;73.462;2023-04-01T05:07:51;10.50;9.00;6.00
78512;PMS5003;67809;55.034;73.462;2023-04-01T05:10:18;9.00;7.50;5.00
78512;PMS5003;67809;55.034;73.462;2023-04-01T05:12:46;16.00;13.33;6.00
78512;PMS5003;67809;55.034;73.462;2023-04-01T05:15:16;10.50;8.50;6.00
78512;PMS5003;67809;55.034;73.462;2023-04-01T05:17:52;11.00;9.00;6.00
78512;PMS5003;67809;55.034;73.462;2023-04-01T05:20:24;11.25;10.00;6.00
78512;PMS5003;67809;55.034;73.462;2023-04-01T05:22:53;12.00;10.00;6.00
78512;PMS5003;67809;55.034;73.462;2023-04-01T05:25:31;8.00;7.00;4.25
78512;PMS5003;67809;55.034;73.462;2023-04-01T05:27:57;10.00;8.00;5.00
78512;PMS5003;67809;55.034;73.462;2023-04-01T05:30:24;8.75;8.00;6.00
78512;PMS5003;67809;55.034;73.462;2023-04-01T05:33:12;15.00;12.00;7.00
78512;PMS5003;67809;55.034;73.462;2023-04-01T05:35:44;10.00;8.00;5.00
78512;PMS5003;67809;55.034;73.462;2023-04-01T05:38:10;12.75;10.50;7.00
78512;PMS5003;67809;55.034;73.462;2023-04-01T05:40:36;8.25;6.25;5.00
78512;PMS5003;67809;55.034;73.462;2023-04-01T05:43:02;14.00;9.00;6.00
78512;PMS5003;67809;55.034;73.462;2023-04-01T05:45:28;12.25;9.50;6.00
78512;PMS5003;67809;55.034;73.462;2023-04-01T05:47:59;13.00;10.00;6.00
78512;PMS5003;67809;55.034;73.462;2023-04-01T05:50:28;15.00;12.00;8.00
78512;PMS5003;67809;55.034;73.462;2023-04-01T05:52:54;22.00;17.00;11.00
78512;PMS5003;67809;55.034;73.462;2023-04-01T05:55:20;13.25;10.50;7.25
78512;PMS5003;67809;55.034;73.462;2023-04-01T05:57:48;15.25;13.00;8.00
78512;PMS5003;67809;55.034;73.462;2023-04-01T06:00:15;10.00;8.50;5.75
78512;PMS5003;67809;55.034;73.462;2023-04-01T06:02:42;9.50;8.75;5.00
78512;PMS5003;67809;55.034;73.462;2023-04-01T06:05:13;12.75;9.75;6.00
78512;PMS5003;67809;55.034;73.462;2023-04-01T06:07:40;8.00;7.50;5.00
78512;PMS5003;67809;55.034;73.462;2023-04-01T06:10:20;10.00;8.75;5.00
78512;PMS5003;67809;55.034;73.462;2023-04-01T06:13:11;12.00;10.00;6.00
78512;PMS5003;67809;55.034;73.462;2023-04-01T06:24:16;17.33;14.00;8.00
78512;PMS5003;67809;55.034;73.462;2023-04-01T06:27:01;14.00;11.75;7.75
78512;PMS5003;67809;55.034;73.462;2023-04-01T06:37:37;10.25;8.50;5.00
78512;PMS5003;67809;55.034;73.462;2023-04-01T06:43:01;13.50;10.50;7.00
78512;PMS5003;67809;55.034;73.462;2023-04-01T06:45:54;16.00;11.75;7.00
78512;PMS5003;67809;55.034;73.462;2023-04-01T06:52:26;16.75;11.00;7.00
78512;PMS5003;67809;55.034;73.462;2023-04-01T06:55:40;10.75;8.00;6.00
78512;PMS5003;67809;55.034;73.462;2023-04-01T06:58:42;18.50;12.50;7.00
78512;PMS5003;67809;55.034;73.462;2023-04-01T07:01:13;8.75;7.50;5.00
78512;PMS5003;67809;55.034;73.462;2023-04-01T07:03:41;13.00;10.00;6.25
78512;PMS5003;67809;55.034;73.462;2023-04-01T07:06:24;10.00;8.00;5.00
78512;PMS5003;67809;55.034;73.462;2023-04-01T07:08:54;11.00;8.50;4.50
78512;PMS5003;67809;55.034;73.462;2023-04-01T07:11:34;11.00;9.00;5.00
78512;PMS5003;67809;55.034;73.462;2023-04-01T07:14:17;10.50;8.25;6.00
78512;PMS5003;67809;55.034;73.462;2023-04-01T07:16:51;24.50;18.75;11.00
78512;PMS5003;67809;55.034;73.462;2023-04-01T07:19:20;13.00;11.00;7.00
78512;PMS5003;67809;55.034;73.462;2023-04-01T07:25:34;12.00;10.00;6.00
78512;PMS5003;67809;55.034;73.462;2023-04-01T07:28:21;15.00;12.50;7.75
78512;PMS5003;67809;55.034;73.462;2023-04-01T07:31:15;71.75;55.25;36.00
78512;PMS5003;67809;55.034;73.462;2023-04-01T07:36:24;25.25;21.75;15.25
78512;PMS5003;67809;55.034;73.462;2023-04-01T07:39:06;52.00;41.50;28.00
78512;PMS5003;67809;55.034;73.462;2023-04-01T07:42:00;70.25;55.75;42.75
78512;PMS5003;67809;55.034;73.462;2023-04-01T07:47:09;30.00;21.75;14.00
78512;PMS5003;67809;55.034;73.462;2023-04-01T07:57:36;48.75;37.50;23.50
78512;PMS5003;67809;55.034;73.462;2023-04-01T08:00:07;13.00;11.25;7.50
78512;PMS5003;67809;55.034;73.462;2023-04-01T08:03:09;37.00;30.75;21.50
78512;PMS5003;67809;55.034;73.462;2023-04-01T08:05:41;26.00;21.00;15.00
78512;PMS5003;67809;55.034;73.462;2023-04-01T08:11:40;12.00;10.00;6.25
78512;PMS5003;67809;55.034;73.462;2023-04-01T08:14:31;16.00;13.00;8.33
78512;PMS5003;67809;55.034;73.462;2023-04-01T08:24:59;28.00;19.00;10.00
78512;PMS5003;67809;55.034;73.462;2023-04-01T08:27:31;22.00;16.75;9.00
78512;PMS5003;67809;55.034;73.462;2023-04-01T08:30:20;17.00;13.00;8.25
78512;PMS5003;67809;55.034;73.462;2023-04-01T08:32:55;10.75;9.50;5.75
78512;PMS5003;67809;55.034;73.462;2023-04-01T08:37:55;32.50;25.50;16.50
78512;PMS5003;67809;55.034;73.462;2023-04-01T08:41:29;18.50;14.00;8.50
78512;PMS5003;67809;55.034;73.462;2023-04-01T08:48:22;27.25;19.50;9.25
78512;PMS5003;67809;55.034;73.462;2023-04-01T08:51:04;33.00;25.00;15.00
78512;PMS5003;67809;55.034;73.462;2023-04-01T08:56:19;19.00;13.67;8.00
78512;PMS5003;67809;55.034;73.462;2023-04-01T09:04:20;19.67;16.33;11.00
78512;PMS5003;67809;55.034;73.462;2023-04-01T09:06:52;17.00;14.00;9.00
78512;PMS5003;67809;55.034;73.462;2023-04-01T09:09:39;24.25;20.25;12.75
78512;PMS5003;67809;55.034;73.462;2023-04-01T09:17:37;22.50;16.50;10.00
78512;PMS5003;67809;55.034;73.462;2023-04-01T09:30:54;24.00;18.50;11.25
78512;PMS5003;67809;55.034;73.462;2023-04-01T09:33:42;13.75;11.75;8.00
78512;PMS5003;67809;55.034;73.462;2023-04-01T09:39:10;18.00;15.00;10.00
78512;PMS5003;67809;55.034;73.462;2023-04-01T09:44:17;18.00;13.25;7.00
78512;PMS5003;67809;55.034;73.462;2023-04-01T09:50:06;27.25;21.50;10.25
78512;PMS5003;67809;55.034;73.462;2023-04-01T10:11:26;49.00;36.00;21.00
78512;PMS5003;67809;55.034;73.462;2023-04-01T10:19:22;29.50;22.75;13.00
78512;PMS5003;67809;55.034;73.462;2023-04-01T10:22:16;28.50;20.75;11.50
78512;PMS5003;67809;55.034;73.462;2023-04-01T10:35:52;30.00;20.00;8.50
78512;PMS5003;67809;55.034;73.462;2023-04-01T11:02:19;27.00;20.00;10.00
78512;PMS5003;67809;55.034;73.462;2023-04-01T11:05:31;33.50;25.50;15.25
78512;PMS5003;67809;55.034;73.462;2023-04-01T11:08:22;24.00;18.00;9.00
78512;PMS5003;67809;55.034;73.462;2023-04-01T11:11:02;14.00;11.00;6.00
78512;PMS5003;67809;55.034;73.462;2023-04-01T11:18:53;18.00;14.75;8.00
78512;PMS5003;67809;55.034;73.462;2023-04-01T11:40:37;23.25;17.25;10.00
78512;PMS5003;67809;55.034;73.462;2023-04-01T11:49:24;12.00;10.00;6.00
78512;PMS5003;67809;55.034;73.462;2023-04-01T11:52:31;8.50;7.00;4.00
78512;PMS5003;67809;55.034;73.462;2023-04-01T11:55:03;15.50;12.00;7.25
78512;PMS5003;67809;55.034;73.462;2023-04-01T12:00:14;9.00;8.00;6.00
78512;PMS5003;67809;55.034;73.462;2023-04-01T12:18:22;26.33;18.00;9.00
78512;PMS5003;67809;55.034;73.462;2023-04-01T12:20:50;9.00;7.00;5.00
78512;PMS5003;67809;55.034;73.462;2023-04-01T12:23:41;13.50;11.00;7.00
78512;PMS5003;67809;55.034;73.462;2023-04-01T12:44:57;16.25;12.00;6.00
78512;PMS5003;67809;55.034;73.462;2023-04-01T12:47:46;10.00;8.00;5.00
78512;PMS5003;67809;55.034;73.462;2023-04-01T12:50:30;9.50;8.75;5.25
78512;PMS5003;67809;55.034;73.462;2023-04-01T12:55:41;16.00;11.00;6.00
78512;PMS5003;67809;55.034;73.462;2023-04-01T12:58:17;14.00;9.00;5.33
78512;PMS5003;67809;55.034;73.462;2023-04-01T13:03:35;9.00;7.00;5.00
78512;PMS5003;67809;55.034;73.462;2023-04-01T13:11:32;12.00;9.00;5.00
78512;PMS5003;67809;55.034;73.462;2023-04-01T13:19:19;9.75;7.00;5.00
78512;PMS5003;67809;55.034;73.462;2023-04-01T13:32:43;11.00;9.00;5.75
78512;PMS5003;67809;55.034;73.462;2023-04-01T13:35:16;10.00;8.00;5.00
78512;PMS5003;67809;55.034;73.462;2023-04-01T13:46:05;12.00;11.00;7.00
78512;PMS5003;67809;55.034;73.462;2023-04-01T13:48:35;11.00;9.25;6.00
78512;PMS5003;67809;55.034;73.462;2023-04-01T13:59:08;10.00;8.00;5.00
78512;PMS5003;67809;55.034;73.462;2023-04-01T14:07:12;13.50;10.00;6.00
78512;PMS5003;67809;55.034;73.462;2023-04-01T14:12:38;17.25;13.75;8.00
78512;PMS5003;67809;55.034;73.462;2023-04-01T14:23:13;17.25;13.00;8.00
78512;PMS5003;67809;55.034;73.462;2023-04-01T14:31:41;11.75;9.25;6.00
78512;PMS5003;67809;55.034;73.462;2023-04-01T14:49:47;9.00;8.00;5.00
78512;PMS5003;67809;55.034;73.462;2023-04-01T14:52:27;10.00;7.25;5.00
78512;PMS5003;67809;55.034;73.462;2023-04-01T14:54:54;14.00;10.25;7.00
78512;PMS5003;67809;55.034;73.462;2023-04-01T14:57:26;11.50;9.00;5.00
78512;PMS5003;67809;55.034;73.462;2023-04-01T15:00:20;24.00;18.67;12.00
78512;PMS5003;67809;55.034;73.462;2023-04-01T15:10:47;11.33;9.67;5.67
78512;PMS5003;67809;55.034;73.462;2023-04-01T15:13:36;14.25;12.25;8.00
78512;PMS5003;67809;55.034;73.462;2023-04-01T15:16:18;15.00;13.00;8.00
78512;PMS5003;67809;55.034;73.462;2023-04-01T15:21:24;12.00;10.25;7.00
78512;PMS5003;67809;55.034;73.462;2023-04-01T15:29:17;13.00;10.25;7.00
78512;PMS5003;67809;55.034;73.462;2023-04-01T15:31:49;14.00;11.00;7.00
78512;PMS5003;67809;55.034;73.462;2023-04-01T15:36:47;17.00;14.00;8.25
78512;PMS5003;67809;55.034;73.462;2023-04-01T15:39:36;17.00;13.00;9.00
78512;PMS5003;67809;55.034;73.462;2023-04-01T15:47:23;14.00;11.75;7.00
78512;PMS5003;67809;55.034;73.462;2023-04-01T15:49:59;12.67;10.00;7.00
78512;PMS5003;67809;55.034;73.462;2023-04-01T15:53:31;13.00;11.00;7.00
78512;PMS5003;67809;55.034;73.462;2023-04-01T16:03:15;11.00;9.00;6.00
78512;PMS5003;67809;55.034;73.462;2023-04-01T16:08:56;14.00;11.00;7.00
78512;PMS5003;67809;55.034;73.462;2023-04-01T16:11:41;11.00;9.00;6.00
78512;PMS5003;67809;55.034;73.462;2023-04-01T16:14:14;10.50;9.00;5.00
78512;PMS5003;67809;55.034;73.462;2023-04-01T16:24:54;11.00;8.50;5.00
78512;PMS5003;67809;55.034;73.462;2023-04-01T16:27:36;10.00;8.00;5.00
78512;PMS5003;67809;55.034;73.462;2023-04-01T16:33:03;10.25;8.00;6.00
78512;PMS5003;67809;55.034;73.462;2023-04-01T16:46:11;11.00;9.00;6.00
78512;PMS5003;67809;55.034;73.462;2023-04-01T16:49:01;10.50;8.25;5.00
78512;PMS5003;67809;55.034;73.462;2023-04-01T16:56:54;7.00;6.00;4.00
78512;PMS5003;67809;55.034;73.462;2023-04-01T17:07:05;13.00;9.50;6.00
78512;PMS5003;67809;55.034;73.462;2023-04-01T17:09:54;10.00;7.75;5.75
78512;PMS5003;67809;55.034;73.462;2023-04-01T17:12:25;9.00;8.00;5.00
78512;PMS5003;67809;55.034;73.462;2023-04-01T17:17:34;11.75;9.00;4.00
78512;PMS5003;67809;55.034;73.462;2023-04-01T17:20:12;7.00;6.00;4.00
78512;PMS5003;67809;55.034;73.462;2023-04-01T17:22:55;10.00;8.00;5.00
78512;PMS5003;67809;55.034;73.462;2023-04-01T17:28:08;10.00;8.00;5.00
78512;PMS5003;67809;55.034;73.462;2023-04-01T17:30:50;9.00;8.00;6.00
78512;PMS5003;67809;55.034;73.462;2023-04-01T17:41:16;12.00;11.00;7.00
78512;PMS5003;67809;55.034;73.462;2023-04-01T17:43:51;11.00;9.00;6.00
78512;PMS5003;67809;55.034;73.462;2023-04-01T17:46:32;13.00;10.25;6.00
78512;PMS5003;67809;55.034;73.462;2023-04-01T17:54:49;12.50;9.00;5.00
78512;PMS5003;67809;55.034;73.462;2023-04-01T18:05:35;5.75;5.00;3.00
78512;PMS5003;67809;55.034;73.462;2023-04-01T18:08:12;7.50;6.00;3.00
78512;PMS5003;67809;55.034;73.462;2023-04-01T18:13:23;8.50;7.00;4.00
78512;PMS5003;67809;55.034;73.462;2023-04-01T18:16:12;5.00;4.00;3.00
78512;PMS5003;67809;55.034;73.462;2023-04-01T18:27:31;9.00;7.00;4.00
78512;PMS5003;67809;55.034;73.462;2023-04-01T18:39:50;4.75;3.00;2.00
78512;PMS5003;67809;55.034;73.462;2023-04-01T18:42:29;5.00;5.00;3.00
78512;PMS5003;67809;55.034;73.462;2023-04-01T18:45:20;5.75;4.50;3.00
78512;PMS5003;67809;55.034;73.462;2023-04-01T18:52:41;5.00;4.00;3.00
78512;PMS5003;67809;55.034;73.462;2023-04-01T18:55:30;5.00;4.25;2.50
78512;PMS5003;67809;55.034;73.462;2023-04-01T19:03:36;5.00;4.00;2.67
78512;PMS5003;67809;55.034;73.462;2023-04-01T19:06:12;5.00;4.00;2.00
78512;PMS5003;67809;55.034;73.462;2023-04-01T19:08:42;7.00;4.75;3.00
78512;PMS5003;67809;55.034;73.462;2023-04-01T19:11:35;6.33;4.67;3.33
78512;PMS5003;67809;55.034;73.462;2023-04-01T19:14:14;7.00;5.00;2.50
78512;PMS5003;67809;55.034;73.462;2023-04-01T19:17:07;6.00;6.00;3.00
78512;PMS5003;67809;55.034;73.462;2023-04-01T19:19:59;4.25;4.00;2.00
78512;PMS5003;67809;55.034;73.462;2023-04-01T19:25:23;5.75;4.00;2.00
78512;PMS5003;67809;55.034;73.462;2023-04-01T19:28:07;5.00;4.00;3.00
78512;PMS5003;67809;55.034;73.462;2023-04-01T19:36:03;4.25;4.00;3.00
78512;PMS5003;67809;55.034;73.462;2023-04-01T19:38:39;5.00;5.00;3.00
78512;PMS5003;67809;55.034;73.462;2023-04-01T19:46:32;6.00;5.00;3.00
78512;PMS5003;67809;55.034;73.462;2023-04-01T19:54:37;6.00;5.00;3.00
78512;PMS5003;67809;55.034;73.462;2023-04-01T19:57:00;7.00;5.50;3.00
78512;PMS5003;67809;55.034;73.462;2023-04-01T19:59:40;7.25;6.00;4.00
78512;PMS5003;67809;55.034;73.462;2023-04-01T20:02:28;9.00;7.00;5.00
78512;PMS5003;67809;55.034;73.462;2023-04-01T20:04:58;8.00;6.75;4.00
78512;PMS5003;67809;55.034;73.462;2023-04-01T20:17:51;11.00;9.00;6.00
78512;PMS5003;67809;55.034;73.462;2023-04-01T20:20:19;14.00;11.25;6.50
78512;PMS5003;67809;55.034;73.462;2023-04-01T20:25:21;16.00;11.75;7.00
78512;PMS5003;67809;55.034;73.462;2023-04-01T20:27:58;12.00;10.00;7.00
78512;PMS5003;67809;55.034;73.462;2023-04-01T20:38:39;12.25;9.00;6.00
78512;PMS5003;67809;55.034;73.462;2023-04-01T20:48:59;9.00;8.00;5.00
78512;PMS5003;67809;55.034;73.462;2023-04-01T20:51:39;10.00;9.00;6.00
78512;PMS5003;67809;55.034;73.462;2023-04-01T20:57:42;11.00;9.00;6.00
78512;PMS5003;67809;55.034;73.462;2023-04-01T21:07:52;12.25;10.25;7.00
78512;PMS5003;67809;55.034;73.462;2023-04-01T21:16:05;9.75;8.25;6.00
78512;PMS5003;67809;55.034;73.462;2023-04-01T21:46:11;7.00;6.00;4.00
78512;PMS5003;67809;55.034;73.462;2023-04-01T21:48:51;7.00;6.00;3.00
78512;PMS5003;67809;55.034;73.462;2023-04-01T22:07:17;5.00;3.75;2.00
78512;PMS5003;67809;55.034;73.462;2023-04-01T22:09:56;4.75;4.00;2.75
78512;PMS5003;67809;55.034;73.462;2023-04-01T22:12:35;6.00;5.00;2.00
78512;PMS5003;67809;55.034;73.462;2023-04-01T22:15:19;4.00;3.00;2.00
78512;PMS5003;67809;55.034;73.462;2023-04-01T22:21:07;5.00;4.00;3.00
78512;PMS5003;67809;55.034;73.462;2023-04-01T22:26:10;4.75;3.00;2.00
78512;PMS5003;67809;55.034;73.462;2023-04-01T22:31:12;6.00;5.00;3.00
78512;PMS5003;67809;55.034;73.462;2023-04-01T22:33:54;6.00;4.75;3.00
78512;PMS5003;67809;55.034;73.462;2023-04-01T22:43:56;4.00;4.00;3.00
78512;PMS5003;67809;55.034;73.462;2023-04-01T22:46:36;2.50;2.00;2.00
78512;PMS5003;67809;55.034;73.462;2023-04-01T22:54:15;3.75;3.00;2.00
78512;PMS5003;67809;55.034;73.462;2023-04-01T22:56:44;5.00;4.75;3.00
78512;PMS5003;67809;55.034;73.462;2023-04-01T22:59:14;4.50;3.75;2.50
78512;PMS5003;67809;55.034;73.462;2023-04-01T23:01:57;6.00;5.00;2.00
78512;PMS5003;67809;55.034;73.462;2023-04-01T23:04:29;4.75;4.00;2.00
78512;PMS5003;67809;55.034;73.462;2023-04-01T23:07:00;4.00;4.00;2.00
78512;PMS5003;67809;55.034;73.462;2023-04-01T23:09:31;5.25;4.00;2.50
78512;PMS5003;67809;55.034;73.462;2023-04-01T23:12:10;6.00;4.00;3.00
78512;PMS5003;67809;55.034;73.462;2023-04-01T23:15:00;3.00;2.67;1.67
78512;PMS5003;67809;55.034;73.462;2023-04-01T23:17:36;4.00;3.00;2.00
78512;PMS5003;67809;55.034;73.462;2023-04-01T23:31:24;7.00;4.50;3.00
78512;PMS5003;67809;55.034;73.462;2023-04-01T23:34:25;4.75;4.00;2.00
78512;PMS5003;67809;55.034;73.462;2023-04-01T23:37:30;5.00;4.00;2.00
78512;PMS5003;67809;55.034;73.462;2023-04-01T23:39:41;6.00;4.00;3.00
78512;PMS5003;67809;55.034;73.462;2023-04-01T23:42:13;5.50;4.25;3.00
78512;PMS5003;67809;55.034;73.462;2023-04-01T23:44:41;6.00;5.00;3.00
78512;PMS5003;67809;55.034;73.462;2023-04-01T23:47:12;8.00;5.00;3.00
78512;PMS5003;67809;55.034;73.462;2023-04-01T23:49:41;5.00;3.50;2.00
78512;PMS5003;67809;55.034;73.462;2023-04-01T23:52:12;6.00;4.75;3.00
78512;PMS5003;67809;55.034;73.462;2023-04-01T23:54:42;6.00;5.00;3.00
78512;PMS5003;67809;55.034;73.462;2023-04-01T23:57:13;6.00;5.00;3.00
78512;PMS5003;67809;55.034;73.462;2023-04-01T23:59:41;5.75;5.00;3.00
